Time;durP1;ratioP1;P1;durP2;ratioP2;P2;SDS_P1;SDS_P2;PMS_P1;PMS_P2;Temp;Humidity;BMP_temperature;BMP_pressure;BME280_temperature;BME280_humidity;BME280_pressure;Samples;Min_cycle;Max_cycle;Signal;HPM_P1;HPM_P2
2021/08/20 00:01:09;;;;;;;15.15;13.52;;;17.00;99.90;;;;;;5029029;28;20425;-40
2021/08/20 00:03:34;;;;;;;14.55;13.05;;;17.00;99.90;;;;;;5025737;28;20055;-41
2021/08/20 00:06:00;;;;;;;14.63;13.10;;;17.00;99.90;;;;;;5029382;28;20537;-41
2021/08/20 00:08:26;;;;;;;14.63;13.13;;;16.90;99.90;;;;;;5028059;28;20025;-39
2021/08/20 00:10:51;;;;;;;15.82;13.40;;;16.90;99.90;;;;;;5028872;28;20014;-41
2021/08/20 00:13:17;;;;;;;15.27;13.55;;;16.80;99.90;;;;;;5028180;28;20037;-41
2021/08/20 00:15:45;;;;;;;15.52;13.35;;;16.80;99.90;;;;;;5027808;28;20045;-42
2021/08/20 00:18:11;;;;;;;15.85;13.68;;;16.70;99.90;;;;;;5029194;28;20024;-38
2021/08/20 00:20:37;;;;;;;14.82;13.32;;;16.60;99.90;;;;;;5028494;28;20033;-40
2021/08/20 00:23:02;;;;;;;14.13;12.73;;;16.50;99.90;;;;;;5028097;28;20025;-40
2021/08/20 00:25:31;;;;;;;15.25;13.07;;;16.40;99.90;;;;;;5029069;28;20021;-43
2021/08/20 00:27:57;;;;;;;14.65;12.27;;;16.40;99.90;;;;;;5028372;28;20029;-42
2021/08/20 00:30:22;;;;;;;13.43;12.02;;;16.40;99.90;;;;;;5028627;28;20376;-42
2021/08/20 00:33:03;;;;;;;15.45;12.98;;;16.30;99.90;;;;;;5027727;28;20049;-41
2021/08/20 00:35:29;;;;;;;14.43;12.68;;;16.30;99.90;;;;;;5028819;28;20033;-42
2021/08/20 00:37:54;;;;;;;15.45;12.20;;;16.30;99.90;;;;;;5028208;28;20047;-43
2021/08/20 00:40:20;;;;;;;15.80;12.82;;;16.30;99.90;;;;;;5028888;28;20522;-38
2021/08/20 00:42:47;;;;;;;15.13;12.63;;;16.30;99.90;;;;;;5027550;28;20017;-38
2021/08/20 00:45:13;;;;;;;15.68;12.50;;;16.30;99.90;;;;;;5028841;28;20473;-41
2021/08/20 00:47:39;;;;;;;13.27;11.98;;;16.30;99.90;;;;;;5028626;28;20036;-41
2021/08/20 00:50:08;;;;;;;13.68;12.07;;;16.30;99.90;;;;;;5027371;28;20022;-38
2021/08/20 00:52:34;;;;;;;15.75;11.95;;;16.30;99.90;;;;;;5028404;28;20374;-39
2021/08/20 00:55:03;;;;;;;12.82;11.45;;;16.30;99.90;;;;;;5028472;28;20155;-41
2021/08/20 00:57:29;;;;;;;14.80;12.55;;;16.30;99.90;;;;;;5028061;28;20087;-43
2021/08/20 00:59:55;;;;;;;20.38;12.52;;;16.20;99.90;;;;;;5027244;28;20105;-41
2021/08/20 01:02:20;;;;;;;14.10;12.60;;;16.20;99.90;;;;;;5027959;28;20488;-42
2021/08/20 01:04:46;;;;;;;13.05;11.70;;;16.20;99.90;;;;;;5026609;28;20094;-38
2021/08/20 01:07:14;;;;;;;12.60;10.93;;;16.20;99.90;;;;;;5028788;28;20025;-43
2021/08/20 01:09:40;;;;;;;11.00;9.98;;;16.20;99.90;;;;;;5027896;28;20036;-42
2021/08/20 01:12:06;;;;;;;13.82;11.40;;;16.20;99.90;;;;;;5028001;28;20021;-42
2021/08/20 01:14:33;;;;;;;12.38;11.07;;;16.30;99.90;;;;;;5027299;28;20084;-40
2021/08/20 01:17:17;;;;;;;12.93;11.57;;;16.30;99.90;;;;;;5027488;28;20377;-42
2021/08/20 01:19:42;;;;;;;13.27;11.88;;;16.20;99.90;;;;;;5027927;28;20026;-43
2021/08/20 01:22:08;;;;;;;12.18;10.75;;;16.20;99.90;;;;;;5028054;28;20116;-42
2021/08/20 01:24:35;;;;;;;12.45;10.70;;;16.20;99.90;;;;;;5027741;28;20017;-41
2021/08/20 01:27:03;;;;;;;12.32;11.13;;;16.20;99.90;;;;;;5027260;28;20427;-42
2021/08/20 01:29:32;;;;;;;13.18;11.50;;;16.20;99.90;;;;;;5027585;28;20026;-43
2021/08/20 01:32:07;;;;;;;12.90;11.55;;;16.10;99.90;;;;;;5016220;28;20022;-41
2021/08/20 01:34:32;;;;;;;13.90;12.45;;;16.10;99.90;;;;;;5027947;28;20436;-42
2021/08/20 01:36:58;;;;;;;14.32;12.50;;;16.10;99.90;;;;;;5027570;28;20013;-43
2021/08/20 01:39:23;;;;;;;14.32;12.18;;;16.10;99.90;;;;;;5026872;28;20533;-42
2021/08/20 01:41:49;;;;;;;14.05;12.57;;;16.10;99.90;;;;;;5027546;28;20028;-43
2021/08/20 01:44:14;;;;;;;16.90;12.88;;;16.10;99.90;;;;;;5028281;28;20044;-37
2021/08/20 01:46:40;;;;;;;14.07;12.05;;;16.10;99.90;;;;;;5027291;28;20030;-40
2021/08/20 01:49:10;;;;;;;15.70;12.20;;;16.20;99.90;;;;;;5028216;28;20389;-42
2021/08/20 01:51:35;;;;;;;15.88;12.02;;;16.10;99.90;;;;;;5027332;28;20124;-43
2021/08/20 01:54:03;;;;;;;14.65;11.98;;;16.10;99.90;;;;;;5026998;28;20068;-42
2021/08/20 01:56:35;;;;;;;13.07;11.82;;;16.10;99.90;;;;;;5028320;28;20025;-43
2021/08/20 01:59:00;;;;;;;13.65;11.20;;;16.10;99.90;;;;;;5031565;28;20037;-41
2021/08/20 02:01:27;;;;;;;12.82;11.07;;;16.00;99.90;;;;;;5030372;28;20026;-41
2021/08/20 02:03:53;;;;;;;12.68;11.45;;;16.00;99.90;;;;;;5031242;28;20091;-43
2021/08/20 02:06:21;;;;;;;13.65;12.18;;;16.00;99.90;;;;;;5031130;28;20021;-37
2021/08/20 02:08:47;;;;;;;13.40;11.98;;;16.00;99.90;;;;;;5029960;28;20508;-42
2021/08/20 02:11:13;;;;;;;14.40;11.95;;;16.00;99.90;;;;;;5031264;28;20022;-41
2021/08/20 02:13:39;;;;;;;12.40;11.20;;;16.10;99.90;;;;;;5030955;28;20038;-41
2021/08/20 02:16:06;;;;;;;11.48;10.30;;;16.10;99.90;;;;;;5030327;28;20535;-42
2021/08/20 02:18:31;;;;;;;12.93;11.57;;;16.20;99.90;;;;;;5031817;28;20409;-39
2021/08/20 02:20:58;;;;;;;15.50;12.02;;;16.20;99.90;;;;;;5029650;28;20053;-41
2021/08/20 02:23:23;;;;;;;12.93;11.63;;;16.30;99.90;;;;;;5030820;28;20642;-38
2021/08/20 02:25:49;;;;;;;13.18;11.35;;;16.30;99.90;;;;;;5029982;28;20075;-43
2021/08/20 02:28:18;;;;;;;13.32;11.07;;;16.30;99.90;;;;;;5030607;28;20461;-42
2021/08/20 02:30:43;;;;;;;13.52;10.90;;;16.30;99.90;;;;;;5017664;28;20026;-43
2021/08/20 02:33:09;;;;;;;12.90;11.10;;;16.40;99.90;;;;;;5027822;28;20389;-42
2021/08/20 02:35:35;;;;;;;11.73;10.63;;;16.40;99.90;;;;;;5029688;28;20045;-41
2021/08/20 02:38:00;;;;;;;13.02;11.63;;;16.40;99.90;;;;;;5029593;28;20061;-42
2021/08/20 02:40:26;;;;;;;12.13;10.90;;;16.40;99.90;;;;;;5030501;28;20425;-40
2021/08/20 02:42:51;;;;;;;15.45;10.82;;;16.40;99.90;;;;;;5028908;28;20480;-42
2021/08/20 02:45:37;;;;;;;13.55;11.15;;;16.40;99.90;;;;;;5030574;28;20033;-43
2021/08/20 02:48:03;;;;;;;13.05;11.65;;;16.40;99.90;;;;;;5029641;28;20025;-43
2021/08/20 02:50:29;;;;;;;13.98;11.60;;;16.30;99.90;;;;;;5030211;28;20451;-43
2021/08/20 02:52:54;;;;;;;14.35;11.80;;;16.30;99.90;;;;;;5029413;28;20366;-40
2021/08/20 02:55:21;;;;;;;15.60;11.80;;;16.30;99.90;;;;;;5031152;28;20056;-42
2021/08/20 02:57:46;;;;;;;13.98;12.13;;;16.30;99.90;;;;;;5029551;28;20192;-40
2021/08/20 03:00:13;;;;;;;12.52;11.10;;;16.40;99.90;;;;;;5030362;28;20685;-44
2021/08/20 03:02:41;;;;;;;13.90;12.10;;;16.40;99.90;;;;;;5029753;28;20014;-43
2021/08/20 03:05:07;;;;;;;14.57;11.98;;;16.40;99.90;;;;;;5029717;28;20056;-42
2021/08/20 03:07:32;;;;;;;13.20;11.65;;;16.40;99.90;;;;;;5029673;28;20385;-41
2021/08/20 03:09:58;;;;;;;13.90;11.50;;;16.40;99.90;;;;;;5028225;28;20468;-39
2021/08/20 03:12:36;;;;;;;14.38;11.95;;;16.40;99.90;;;;;;5029904;28;20064;-41
2021/08/20 03:15:01;;;;;;;13.77;12.32;;;16.40;99.90;;;;;;5026045;28;20385;-40
2021/08/20 03:17:27;;;;;;;13.10;11.82;;;16.40;99.90;;;;;;5029592;28;20481;-39
2021/08/20 03:19:55;;;;;;;13.75;12.20;;;16.40;99.90;;;;;;5029132;28;20040;-41
2021/08/20 03:22:21;;;;;;;17.98;13.60;;;16.40;99.90;;;;;;5030401;28;20079;-36
2021/08/20 03:24:46;;;;;;;13.65;12.25;;;16.40;99.90;;;;;;5028731;28;20033;-41
2021/08/20 03:27:12;;;;;;;13.20;11.80;;;16.40;99.90;;;;;;5030468;28;20017;-43
2021/08/20 03:29:37;;;;;;;13.70;12.20;;;16.40;99.90;;;;;;5029888;28;20024;-43
2021/08/20 03:32:03;;;;;;;14.93;12.82;;;16.40;99.90;;;;;;5028969;28;20124;-43
2021/08/20 03:34:29;;;;;;;14.23;12.07;;;16.40;99.90;;;;;;5029521;28;20034;-40
2021/08/20 03:36:56;;;;;;;17.67;13.60;;;16.40;99.90;;;;;;5028920;28;20044;-41
2021/08/20 03:39:21;;;;;;;12.38;11.13;;;16.40;99.90;;;;;;5029331;28;20108;-41
2021/08/20 03:41:48;;;;;;;16.25;13.38;;;16.40;99.90;;;;;;5028785;28;20100;-40
2021/08/20 03:44:14;;;;;;;15.27;13.68;;;16.40;99.90;;;;;;5029621;28;20021;-39
2021/08/20 03:46:42;;;;;;;15.80;14.07;;;16.40;99.90;;;;;;5029092;28;20389;-38
2021/08/20 03:49:08;;;;;;;16.73;14.00;;;16.40;99.90;;;;;;5029075;28;20025;-40
2021/08/20 03:51:33;;;;;;;15.52;13.35;;;16.40;99.90;;;;;;5029752;28;20032;-40
2021/08/20 03:53:59;;;;;;;15.88;13.90;;;16.40;99.90;;;;;;5028307;28;20064;-39
2021/08/20 03:56:24;;;;;;;16.85;13.55;;;16.40;99.90;;;;;;5029661;28;20021;-43
2021/08/20 03:58:50;;;;;;;16.17;13.93;;;16.50;99.90;;;;;;5028624;28;20044;-41
2021/08/20 04:01:15;;;;;;;16.25;14.30;;;16.50;99.90;;;;;;5028704;28;20045;-40
2021/08/20 04:03:41;;;;;;;17.40;15.20;;;16.50;99.90;;;;;;5028446;28;20025;-43
2021/08/20 04:06:10;;;;;;;15.75;14.15;;;16.50;99.90;;;;;;5028580;28;20020;-42
2021/08/20 04:08:36;;;;;;;14.38;12.93;;;16.40;99.90;;;;;;5029294;28;20082;-43
2021/08/20 04:11:03;;;;;;;15.63;13.55;;;16.40;99.90;;;;;;5028527;28;20013;-42
2021/08/20 04:13:31;;;;;;;15.07;12.57;;;16.40;99.90;;;;;;5029119;28;20043;-43
2021/08/20 04:15:56;;;;;;;15.65;13.85;;;16.40;99.90;;;;;;5028215;28;20057;-42
2021/08/20 04:18:25;;;;;;;17.42;13.77;;;16.40;99.90;;;;;;5028862;28;20492;-42
2021/08/20 04:20:50;;;;;;;18.27;15.23;;;16.40;99.90;;;;;;5027752;28;20075;-39
2021/08/20 04:23:18;;;;;;;16.02;14.18;;;16.40;99.90;;;;;;5029105;28;20025;-41
2021/08/20 04:25:44;;;;;;;17.13;14.20;;;16.40;99.90;;;;;;5028957;28;20045;-43
2021/08/20 04:28:12;;;;;;;16.90;13.60;;;16.30;99.90;;;;;;5028324;28;20154;-36
2021/08/20 04:30:38;;;;;;;19.38;13.85;;;16.30;99.90;;;;;;5028894;28;20025;-39
2021/08/20 04:33:03;;;;;;;18.10;13.75;;;16.40;99.90;;;;;;5028619;28;20063;-42
2021/08/20 04:35:29;;;;;;;15.77;14.07;;;16.40;99.90;;;;;;5028672;28;20075;-40
2021/08/20 04:37:55;;;;;;;18.77;14.02;;;16.40;99.90;;;;;;5028507;28;20067;-42
2021/08/20 04:40:21;;;;;;;16.67;13.98;;;16.40;99.90;;;;;;5028973;28;20060;-39
2021/08/20 04:42:46;;;;;;;18.13;14.35;;;16.50;99.90;;;;;;5027824;28;20026;-42
2021/08/20 04:45:16;;;;;;;21.88;16.15;;;16.50;99.90;;;;;;5029444;28;20116;-39
2021/08/20 04:47:45;;;;;;;17.85;15.30;;;16.60;99.90;;;;;;5028810;28;20108;-41
2021/08/20 04:50:12;;;;;;;19.20;15.27;;;16.60;99.90;;;;;;5029080;28;20040;-42
2021/08/20 04:52:38;;;;;;;16.30;14.60;;;16.60;99.90;;;;;;5028238;28;20529;-41
2021/08/20 04:55:12;;;;;;;19.73;15.50;;;16.60;99.90;;;;;;5028593;28;20108;-43
2021/08/20 04:57:38;;;;;;;16.50;14.52;;;16.60;99.90;;;;;;5028229;28;20051;-43
2021/08/20 05:00:10;;;;;;;18.92;16.00;;;16.60;99.90;;;;;;5029213;28;20531;-43
2021/08/20 05:02:36;;;;;;;18.83;15.02;;;16.60;99.90;;;;;;5028426;28;20022;-42
2021/08/20 05:05:05;;;;;;;20.08;15.95;;;16.60;99.90;;;;;;5028126;28;20106;-42
2021/08/20 05:07:37;;;;;;;17.60;13.63;;;16.60;99.90;;;;;;5028818;28;20351;-42
2021/08/20 05:10:06;;;;;;;21.38;15.73;;;16.60;99.90;;;;;;5027706;28;20108;-42
2021/08/20 05:12:32;;;;;;;17.70;15.15;;;16.60;99.90;;;;;;5027925;28;20469;-43
2021/08/20 05:14:58;;;;;;;22.10;16.58;;;16.60;99.90;;;;;;5027652;28;20469;-42
2021/08/20 05:17:24;;;;;;;21.77;15.88;;;16.70;99.90;;;;;;5027901;28;20041;-43
2021/08/20 05:19:49;;;;;;;17.95;14.75;;;16.60;99.90;;;;;;5028341;28;20528;-41
2021/08/20 05:22:18;;;;;;;18.25;14.93;;;16.60;99.90;;;;;;5028137;28;20037;-38
2021/08/20 05:24:44;;;;;;;19.20;15.40;;;16.60;99.90;;;;;;5027900;28;20053;-38
2021/08/20 05:27:09;;;;;;;18.58;15.93;;;16.60;99.90;;;;;;5027895;28;20053;-42
2021/08/20 05:29:34;;;;;;;17.15;14.38;;;16.60;99.90;;;;;;5028294;28;20432;-43
2021/08/20 05:32:00;;;;;;;17.33;13.65;;;16.70;99.90;;;;;;5029027;28;20117;-38
2021/08/20 05:34:25;;;;;;;16.85;13.70;;;16.70;99.90;;;;;;5032635;28;20128;-40
2021/08/20 05:36:51;;;;;;;16.85;14.65;;;16.70;99.90;;;;;;5031636;28;20072;-42
2021/08/20 05:39:17;;;;;;;17.55;14.85;;;16.70;99.90;;;;;;5031450;28;20454;-42
2021/08/20 05:41:42;;;;;;;18.98;14.02;;;16.70;99.90;;;;;;5031236;28;20655;-42
2021/08/20 05:44:08;;;;;;;17.05;13.85;;;16.70;99.90;;;;;;5031540;28;20420;-40
2021/08/20 05:46:33;;;;;;;14.85;13.15;;;16.80;99.90;;;;;;5042115;28;20056;-40
2021/08/20 05:49:03;;;;;;;17.83;14.75;;;16.80;99.90;;;;;;5033590;28;20014;-39
2021/08/20 05:51:29;;;;;;;19.25;13.35;;;16.80;99.90;;;;;;5031036;28;20021;-40
2021/08/20 05:53:54;;;;;;;16.67;13.18;;;16.80;99.90;;;;;;5026794;28;20136;-41
2021/08/20 05:56:20;;;;;;;19.80;15.80;;;16.90;99.90;;;;;;5030955;28;20026;-40
2021/08/20 05:58:52;;;;;;;16.42;13.65;;;16.90;99.90;;;;;;5028816;28;20506;-43
2021/08/20 06:01:18;;;;;;;18.60;15.27;;;17.00;99.90;;;;;;5030517;28;20032;-38
2021/08/20 06:03:44;;;;;;;19.92;14.13;;;17.00;99.90;;;;;;5030269;28;20033;-42
2021/08/20 06:06:16;;;;;;;17.20;13.50;;;17.00;99.90;;;;;;5029688;28;20036;-41
2021/08/20 06:08:43;;;;;;;18.38;14.80;;;17.10;99.90;;;;;;5030074;28;20099;-39
2021/08/20 06:11:08;;;;;;;20.27;15.85;;;17.10;99.90;;;;;;5030477;28;20014;-43
2021/08/20 06:13:34;;;;;;;17.50;14.55;;;17.10;99.90;;;;;;5029182;28;20040;-43
2021/08/20 06:16:00;;;;;;;15.55;13.10;;;17.10;99.90;;;;;;5030215;28;20033;-42
2021/08/20 06:18:26;;;;;;;19.98;15.02;;;17.10;99.90;;;;;;5030259;28;20043;-42
2021/08/20 06:20:51;;;;;;;16.98;14.25;;;17.10;99.90;;;;;;5029813;28;20104;-42
2021/08/20 06:23:21;;;;;;;18.15;13.95;;;17.10;99.90;;;;;;5031380;28;20029;-43
2021/08/20 06:25:48;;;;;;;15.05;12.20;;;17.20;99.90;;;;;;5030522;28;20543;-43
2021/08/20 06:28:15;;;;;;;15.48;12.32;;;17.30;99.90;;;;;;5030709;28;20052;-42
2021/08/20 06:30:45;;;;;;;14.38;11.75;;;17.30;99.90;;;;;;5030253;28;20084;-42
2021/08/20 06:33:11;;;;;;;16.63;14.48;;;17.50;99.90;;;;;;5030929;28;20044;-42
2021/08/20 06:35:36;;;;;;;20.42;15.07;;;17.60;99.90;;;;;;5029474;28;20017;-34
2021/08/20 06:38:05;;;;;;;17.67;13.57;;;17.70;99.90;;;;;;5030654;28;20113;-40
2021/08/20 06:40:32;;;;;;;15.85;12.82;;;17.80;99.90;;;;;;5030567;28;20500;-40
2021/08/20 06:42:58;;;;;;;15.23;12.90;;;17.90;99.90;;;;;;5029680;28;20075;-38
2021/08/20 06:45:36;;;;;;;16.52;12.98;;;18.00;99.90;;;;;;5030437;28;20017;-41
2021/08/20 06:48:02;;;;;;;16.05;12.95;;;18.10;99.90;;;;;;5030506;28;20108;-42
2021/08/20 06:50:27;;;;;;;15.05;11.93;;;18.10;99.90;;;;;;5030581;28;20056;-40
2021/08/20 06:52:53;;;;;;;15.77;12.73;;;18.20;99.90;;;;;;5030187;28;20064;-35
2021/08/20 06:55:22;;;;;;;13.65;10.15;;;18.20;99.90;;;;;;5029593;28;20029;-39
2021/08/20 06:57:47;;;;;;;15.68;12.25;;;18.30;99.90;;;;;;5030752;28;20025;-41
2021/08/20 07:00:13;;;;;;;13.07;10.38;;;18.30;99.90;;;;;;5030495;28;20033;-41
2021/08/20 07:02:46;;;;;;;13.93;12.02;;;18.30;99.90;;;;;;5029861;28;20025;-41
2021/08/20 07:05:18;;;;;;;15.68;12.85;;;18.30;99.90;;;;;;5038148;28;20064;-40
2021/08/20 07:07:44;;;;;;;15.35;12.73;;;18.20;99.90;;;;;;5038764;28;20121;-39
2021/08/20 07:10:17;;;;;;;15.63;12.07;;;18.20;99.90;;;;;;5034611;28;20120;-36
2021/08/20 07:12:44;;;;;;;15.60;12.32;;;18.30;99.90;;;;;;5030155;28;20108;-40
2021/08/20 07:15:11;;;;;;;12.27;10.77;;;18.40;99.90;;;;;;5029588;28;20045;-38
2021/08/20 07:17:40;;;;;;;14.77;13.05;;;18.50;99.90;;;;;;5029069;28;20014;-38
2021/08/20 07:20:09;;;;;;;16.23;13.65;;;18.70;99.90;;;;;;5029308;28;20095;-40
2021/08/20 07:22:35;;;;;;;14.98;12.40;;;18.80;99.90;;;;;;5030004;28;20121;-42
2021/08/20 07:25:03;;;;;;;11.68;10.48;;;18.90;99.90;;;;;;5028870;28;20057;-42
2021/08/20 07:27:29;;;;;;;12.40;11.07;;;18.90;99.90;;;;;;5032465;28;20057;-41
2021/08/20 07:29:54;;;;;;;13.60;12.15;;;19.00;99.90;;;;;;5029239;28;20056;-43
2021/08/20 07:32:20;;;;;;;12.82;11.40;;;19.00;99.90;;;;;;5029060;28;20025;-43
2021/08/20 07:34:46;;;;;;;13.77;11.88;;;19.00;99.90;;;;;;5029334;28;20022;-41
2021/08/20 07:37:11;;;;;;;12.68;11.32;;;19.00;99.90;;;;;;5029226;28;20029;-43
2021/08/20 07:39:37;;;;;;;16.80;12.98;;;19.00;99.90;;;;;;5029685;28;20113;-41
2021/08/20 07:42:05;;;;;;;14.63;13.07;;;19.10;99.90;;;;;;5034342;28;20017;-45
2021/08/20 07:44:31;;;;;;;13.88;12.15;;;19.00;99.90;;;;;;5038044;28;20469;-41
2021/08/20 07:46:56;;;;;;;14.07;12.57;;;19.10;99.90;;;;;;5039618;28;20543;-43
2021/08/20 07:49:22;;;;;;;12.35;11.05;;;19.10;99.90;;;;;;5036268;28;20112;-41
2021/08/20 07:51:48;;;;;;;16.58;14.30;;;19.20;99.90;;;;;;5034367;28;20063;-41
2021/08/20 07:54:14;;;;;;;14.80;13.35;;;19.20;99.90;;;;;;5031784;28;20025;-43
2021/08/20 07:56:42;;;;;;;13.88;12.43;;;19.30;99.90;;;;;;5036329;28;20028;-41
2021/08/20 07:59:08;;;;;;;14.73;12.07;;;19.40;99.90;;;;;;5036882;28;20032;-42
2021/08/20 08:01:34;;;;;;;15.10;13.13;;;19.50;99.90;;;;;;5039821;28;20100;-45
2021/08/20 08:04:00;;;;;;;13.73;12.35;;;19.80;99.90;;;;;;5037205;28;20028;-41
2021/08/20 08:06:26;;;;;;;13.25;9.93;;;19.80;99.90;;;;;;5039514;28;20032;-42
2021/08/20 08:08:53;;;;;;;12.05;10.65;;;19.90;99.90;;;;;;5037569;28;20021;-42
2021/08/20 08:11:19;;;;;;;13.60;12.20;;;19.90;99.90;;;;;;5041650;28;20369;-44
2021/08/20 08:13:45;;;;;;;12.25;11.05;;;19.80;99.90;;;;;;5034948;28;20247;-43
2021/08/20 08:16:11;;;;;;;13.40;12.00;;;19.80;99.90;;;;;;5045723;28;20083;-41
2021/08/20 08:18:36;;;;;;;14.00;12.60;;;19.80;99.90;;;;;;5040885;28;20071;-45
2021/08/20 08:21:02;;;;;;;12.32;11.05;;;19.80;99.90;;;;;;5028877;28;20026;-44
2021/08/20 08:23:28;;;;;;;12.32;11.02;;;19.90;99.90;;;;;;5038289;28;20469;-41
2021/08/20 08:25:54;;;;;;;11.07;9.98;;;20.10;99.90;;;;;;5037089;28;20034;-43
2021/08/20 08:28:21;;;;;;;12.18;10.93;;;20.30;99.90;;;;;;5028283;28;20532;-44
2021/08/20 08:30:51;;;;;;;13.13;11.82;;;20.50;99.90;;;;;;5028536;28;20383;-44
2021/08/20 08:33:18;;;;;;;11.43;10.23;;;20.50;99.90;;;;;;5028154;28;20044;-44
2021/08/20 08:36:05;;;;;;;12.90;11.70;;;20.60;99.90;;;;;;5028300;28;20485;-40
2021/08/20 08:38:30;;;;;;;11.82;10.63;;;20.60;99.90;;;;;;5028645;28;20033;-42
2021/08/20 08:40:57;;;;;;;14.65;13.25;;;20.50;99.90;;;;;;5028584;28;20036;-41
2021/08/20 08:43:22;;;;;;;12.73;11.48;;;20.50;99.90;;;;;;5028923;28;20041;-41
2021/08/20 08:45:48;;;;;;;11.30;10.20;;;20.50;99.90;;;;;;5027929;28;20382;-43
2021/08/20 08:48:14;;;;;;;13.25;11.85;;;20.50;99.90;;;;;;5045635;28;20550;-40
2021/08/20 08:50:44;;;;;;;13.32;12.00;;;20.70;99.90;;;;;;5032450;28;20453;-41
2021/08/20 08:53:10;;;;;;;13.07;10.88;;;20.80;99.90;;;;;;5030710;28;20060;-37
2021/08/20 08:55:36;;;;;;;11.52;10.38;;;21.00;99.90;;;;;;5031162;28;20041;-42
2021/08/20 08:58:06;;;;;;;12.57;11.27;;;21.10;99.90;;;;;;5027809;28;20045;-40
2021/08/20 09:00:34;;;;;;;12.65;11.35;;;21.20;99.90;;;;;;5034023;28;20413;-41
2021/08/20 09:03:00;;;;;;;11.60;10.40;;;21.20;99.90;;;;;;5030363;28;20030;-42
2021/08/20 09:05:39;;;;;;;11.55;10.45;;;21.20;99.90;;;;;;5028191;28;20462;-43
2021/08/20 09:08:10;;;;;;;11.07;9.20;;;21.30;99.90;;;;;;5040658;28;20108;-41
2021/08/20 09:10:36;;;;;;;10.50;9.50;;;21.40;99.90;;;;;;5041369;28;20029;-43
2021/08/20 09:13:03;;;;;;;10.98;9.85;;;21.40;99.90;;;;;;5041422;28;20527;-38
2021/08/20 09:15:31;;;;;;;10.82;9.73;;;21.50;99.90;;;;;;5039433;28;20054;-41
2021/08/20 09:18:02;;;;;;;12.55;11.25;;;21.50;99.90;;;;;;5029343;28;20032;-40
2021/08/20 09:20:30;;;;;;;10.02;9.13;;;21.50;99.90;;;;;;5030189;28;20026;-39
2021/08/20 09:22:58;;;;;;;10.23;9.23;;;21.40;99.90;;;;;;5029978;28;20037;-40
2021/08/20 09:25:32;;;;;;;12.50;10.95;;;21.40;99.90;;;;;;5030534;28;20021;-42
2021/08/20 09:28:19;;;;;;;9.85;8.95;;;21.40;99.90;;;;;;5029672;28;20026;-40
2021/08/20 09:30:53;;;;;;;11.40;10.13;;;21.50;99.90;;;;;;5029761;28;20108;-41
2021/08/20 09:33:22;;;;;;;10.80;9.80;;;21.40;99.90;;;;;;5031073;28;20046;-41
2021/08/20 09:36:03;;;;;;;11.63;10.43;;;21.40;99.90;;;;;;5031590;28;20496;-41
2021/08/20 09:38:35;;;;;;;10.18;9.18;;;21.50;99.90;;;;;;5032218;28;20025;-41
2021/08/20 09:41:06;;;;;;;9.65;8.75;;;21.50;99.90;;;;;;5031260;28;20025;-43
2021/08/20 09:43:34;;;;;;;10.00;9.10;;;21.60;99.90;;;;;;5032655;28;20033;-42
2021/08/20 09:46:12;;;;;;;9.88;8.88;;;21.80;99.90;;;;;;5030967;28;20030;-39
2021/08/20 09:48:38;;;;;;;9.82;8.77;;;21.80;99.90;;;;;;5021970;28;20029;-40
2021/08/20 09:51:07;;;;;;;10.50;9.45;;;21.90;99.90;;;;;;5031330;28;20010;-41
2021/08/20 09:53:39;;;;;;;9.90;9.00;;;21.90;99.90;;;;;;5030845;28;20030;-38
2021/08/20 09:56:06;;;;;;;8.38;7.57;;;21.80;99.90;;;;;;5031542;28;20072;-42
2021/08/20 09:58:32;;;;;;;9.27;8.38;;;21.80;99.90;;;;;;5031068;28;20028;-42
2021/08/20 10:01:03;;;;;;;7.70;7.00;;;21.80;99.90;;;;;;5031498;28;20538;-40
2021/08/20 10:03:31;;;;;;;10.07;8.43;;;21.80;99.90;;;;;;5031793;28;20472;-40
2021/08/20 10:05:59;;;;;;;10.82;9.73;;;22.00;99.90;;;;;;5030563;28;20674;-41
2021/08/20 10:08:26;;;;;;;9.63;8.38;;;22.00;99.90;;;;;;5031588;28;20067;-39
2021/08/20 10:10:54;;;;;;;9.73;8.73;;;22.00;99.90;;;;;;5030728;28;20018;-41
2021/08/20 10:13:21;;;;;;;8.77;7.88;;;22.00;99.90;;;;;;5030492;28;20041;-43
2021/08/20 10:15:47;;;;;;;8.23;7.35;;;22.00;99.90;;;;;;5031247;28;20573;-42
2021/08/20 10:18:15;;;;;;;7.85;7.05;;;21.90;99.90;;;;;;5030955;28;20057;-36
2021/08/20 10:20:44;;;;;;;8.52;7.68;;;22.00;99.90;;;;;;5030291;28;20060;-42
2021/08/20 10:23:12;;;;;;;9.07;7.18;;;21.90;99.90;;;;;;5029965;28;20029;-40
2021/08/20 10:25:38;;;;;;;7.68;6.30;;;22.00;99.90;;;;;;5031392;28;20048;-39
2021/08/20 10:28:05;;;;;;;6.97;6.30;;;22.00;99.90;;;;;;5038415;28;20438;-41
2021/08/20 10:30:32;;;;;;;7.35;6.32;;;22.00;99.90;;;;;;5031171;28;20378;-39
2021/08/20 10:33:05;;;;;;;8.00;6.60;;;22.10;99.90;;;;;;5018530;28;20029;-40
2021/08/20 10:35:54;;;;;;;7.93;6.90;;;22.20;99.90;;;;;;5031038;28;20037;-41
2021/08/20 10:38:27;;;;;;;7.70;7.00;;;22.20;99.90;;;;;;5038734;28;20488;-42
2021/08/20 10:41:13;;;;;;;6.90;6.20;;;22.30;99.90;;;;;;5041144;28;20041;-40
2021/08/20 10:44:03;;;;;;;8.68;7.78;;;22.20;99.90;;;;;;5021468;28;20018;-42
2021/08/20 10:46:32;;;;;;;7.05;6.38;;;22.20;99.90;;;;;;5028190;28;20127;-37
2021/08/20 10:49:20;;;;;;;7.30;6.25;;;22.20;99.90;;;;;;5027108;28;20029;-40
2021/08/20 10:51:56;;;;;;;6.95;6.22;;;22.20;99.90;;;;;;5042015;28;20028;-38
2021/08/20 10:54:31;;;;;;;6.28;4.97;;;22.30;99.90;;;;;;5043510;28;20082;-40
2021/08/20 10:57:00;;;;;;;5.80;5.22;;;22.40;99.90;;;;;;5037445;28;20041;-42
2021/08/20 10:59:38;;;;;;;6.65;4.78;;;22.50;99.90;;;;;;5036203;28;20488;-37
2021/08/20 11:02:22;;;;;;;5.32;4.68;;;22.50;99.90;;;;;;5042371;28;20021;-39
2021/08/20 11:05:01;;;;;;;5.63;5.10;;;22.60;99.90;;;;;;5034888;28;20025;-39
2021/08/20 11:07:38;;;;;;;5.57;4.30;;;22.70;99.90;;;;;;5010870;28;20036;-42
2021/08/20 11:10:10;;;;;;;5.47;4.85;;;22.80;99.90;;;;;;5025836;28;20036;-42
2021/08/20 11:12:38;;;;;;;3.60;3.28;;;22.80;99.80;;;;;;5015066;28;20044;-39
2021/08/20 11:15:25;;;;;;;3.58;3.28;;;22.90;99.80;;;;;;5039789;28;20724;-41
2021/08/20 11:17:55;;;;;;;4.18;3.67;;;23.00;99.80;;;;;;5019764;28;20029;-39
2021/08/20 11:20:38;;;;;;;4.32;3.92;;;23.10;99.40;;;;;;5029964;28;20025;-39
2021/08/20 11:23:10;;;;;;;5.72;3.83;;;23.20;99.30;;;;;;5010050;28;20034;-41
2021/08/20 11:25:38;;;;;;;4.65;4.18;;;23.20;99.10;;;;;;5026106;28;20465;-41
2021/08/20 11:28:06;;;;;;;5.55;5.05;;;23.30;99.00;;;;;;5029406;28;20037;-42
2021/08/20 11:30:37;;;;;;;6.10;5.50;;;23.40;98.70;;;;;;5027868;28;20013;-41
2021/08/20 11:33:45;;;;;;;4.78;4.40;;;23.40;98.50;;;;;;5030154;28;20113;-41
2021/08/20 11:36:19;;;;;;;4.43;4.03;;;23.30;98.50;;;;;;5028452;28;20034;-41
2021/08/20 11:39:01;;;;;;;4.60;4.20;;;23.20;98.40;;;;;;5029919;28;20438;-39
2021/08/20 11:41:44;;;;;;;4.15;3.75;;;23.20;98.30;;;;;;5029655;28;20021;-43
2021/08/20 11:44:12;;;;;;;3.83;3.45;;;23.10;98.20;;;;;;5029187;28;20048;-38
2021/08/20 11:46:41;;;;;;;3.40;3.10;;;23.10;98.30;;;;;;5029543;28;20611;-39
2021/08/20 11:49:09;;;;;;;5.00;3.72;;;23.00;98.40;;;;;;5029510;28;20045;-40
2021/08/20 11:51:35;;;;;;;4.07;3.67;;;22.90;98.60;;;;;;5029456;28;20109;-38
2021/08/20 11:54:07;;;;;;;4.10;3.53;;;23.00;98.60;;;;;;5029712;28;20033;-40
2021/08/20 11:56:33;;;;;;;4.55;4.15;;;23.00;98.70;;;;;;5029304;28;20021;-38
2021/08/20 11:59:09;;;;;;;5.07;4.40;;;23.20;98.70;;;;;;5028731;28;20369;-39
2021/08/20 12:01:38;;;;;;;3.97;3.60;;;23.30;98.30;;;;;;5028901;28;20109;-42
2021/08/20 12:04:04;;;;;;;4.97;3.83;;;23.40;98.10;;;;;;5029462;28;20040;-39
2021/08/20 12:06:30;;;;;;;5.03;4.40;;;23.50;98.10;;;;;;5028863;28;20381;-42
2021/08/20 12:09:08;;;;;;;4.80;3.90;;;23.50;98.00;;;;;;5028637;28;20040;-42
2021/08/20 12:11:33;;;;;;;4.65;4.25;;;23.50;98.00;;;;;;5028457;28;20040;-40
2021/08/20 12:13:59;;;;;;;4.07;3.78;;;23.40;98.10;;;;;;5028922;28;20037;-40
2021/08/20 12:16:46;;;;;;;4.97;4.47;;;23.40;98.30;;;;;;5028714;28;20080;-42
2021/08/20 12:19:24;;;;;;;5.93;5.32;;;23.30;98.30;;;;;;5028479;28;20040;-41
2021/08/20 12:21:56;;;;;;;6.10;5.60;;;23.10;98.30;;;;;;5028472;28;20017;-39
2021/08/20 12:24:48;;;;;;;5.70;5.18;;;23.00;98.30;;;;;;5028758;28;20032;-42
2021/08/20 12:27:16;;;;;;;7.60;5.80;;;23.00;98.50;;;;;;5026351;28;20033;-39
2021/08/20 12:30:02;;;;;;;5.88;5.30;;;22.90;98.10;;;;;;5025889;28;20355;-42
2021/08/20 12:32:35;;;;;;;4.40;3.97;;;22.90;98.10;;;;;;5024103;28;20573;-41
2021/08/20 12:35:13;;;;;;;5.18;4.68;;;22.90;98.20;;;;;;5028533;28;20459;-42
2021/08/20 12:37:39;;;;;;;5.78;5.20;;;22.80;98.20;;;;;;5027813;28;20032;-41